Haddam, CT

11:41 PM EDT on July 04, 2015 (GMT -0400)
Chester | | Change Station
CLOSE
Current Station
Airport
Location: Chester,
Elevation: 413 ft
Nearby Weather Stations

Elev 413 ft 41.38 °N, 72.51 °W | Updated 26 minutes ago

Clear
Clear
61 °F
Feels Like 61 °F
N
0
Wind Variable Wind from North

Today
High -- | Low -- °F
--% Chance of Precip.
Yesterday
High -- | Low -- °F
Precip. -- in
5:21 AM 8:27 PM
Waning Gibbous, 88% visible
Pressure 30.02 in
Visibility 10.0 miles
Clouds Clear
Dew Point 57 °F
Humidity 88%
Rainfall 0.01 in
Snow Depth Not available.
UV 0 out of 12
Pollen 1.00 out of 12
Air Quality Not available.
Flu Activity Not available.
METAR KSNC 050315Z AUTO 00000KT 10SM CLR 16/14 A3002 RMK AO2

More Conditions Fewer Conditions

Pressure 30.02 in
Visibility 10.0 miles
Clouds Clear
Dew Point 57 °F
Humidity 88%
Rainfall 0.01 in
Snow Depth Not available.
UV 0 out of 12
Pollen 1.00 out of 12
Air Quality Not available.
Flu Activity Not available.
METAR KSNC 050315Z AUTO 00000KT 10SM CLR 16/14 A3002 RMK AO2

More Conditions Fewer Conditions

10-Day Weather Forecast

×

Almanac

Astronomy

Jul. 04, 2015 Rise Set
Actual Time
Civil Twilight
Nautical Twilight
Astronomical Twilight
Moon
Length of Visible Light
Length of Day
Tomorrow will be .
, % of the Moon is Illuminated

Today's Extremes

State Highs State Lows

Community

WunderPhotos

Upload Photos

1,835,193 photos uploaded!

WunderBlogs® & News

Nearby

Air Quality

  Air Quality AQ Index Pollutant
Not available.

Snow Depth

Station Depth Elevation

Earthquake Activity

City Distance Mag. Time & Date
Minimum magnitude displayed is 2.5.

Coastal Water Temperatures

Place Temperature

Stations

Nearby Weather Stations

Station Location Temp. Windchill Dew Point Humidity Wind Precip. Elev Updated Type